createdAt,value
2022-10-19T00:01:23.318Z,11.20
2022-10-19T00:03:54.628Z,11.30
2022-10-19T00:06:32.029Z,11.30
2022-10-19T00:09:14.889Z,11.30
2022-10-19T00:11:45.787Z,11.20
2022-10-19T00:14:18.680Z,11.10
2022-10-19T00:16:48.738Z,11.00
2022-10-19T00:19:21.163Z,10.90
2022-10-19T00:24:18.255Z,10.90
2022-10-19T00:26:45.662Z,10.80
2022-10-19T00:29:15.042Z,10.80
2022-10-19T00:31:43.068Z,10.80
2022-10-19T00:34:10.616Z,10.90
2022-10-19T00:36:41.896Z,10.90
2022-10-19T00:39:14.224Z,10.80
2022-10-19T00:41:42.872Z,10.70
2022-10-19T00:44:13.324Z,10.70
2022-10-19T00:46:44.130Z,10.80
2022-10-19T00:49:34.254Z,10.80
2022-10-19T00:52:16.829Z,10.70
2022-10-19T00:54:47.678Z,10.70
2022-10-19T00:57:15.672Z,10.70
2022-10-19T00:59:44.945Z,10.70
2022-10-19T01:02:12.809Z,10.60
2022-10-19T01:04:46.279Z,10.70
2022-10-19T01:07:14.611Z,10.60
2022-10-19T01:09:42.044Z,10.60
2022-10-19T01:12:30.954Z,10.70
2022-10-19T01:15:22.759Z,10.60
2022-10-19T01:18:07.906Z,10.60
2022-10-19T01:21:12.805Z,10.60
2022-10-19T01:24:39.808Z,10.70
2022-10-19T01:27:40.888Z,10.70
2022-10-19T01:30:19.910Z,10.80
2022-10-19T01:33:04.851Z,10.70
2022-10-19T01:35:40.627Z,10.80
2022-10-19T01:38:22.208Z,10.80
2022-10-19T01:41:11.316Z,10.90
2022-10-19T01:44:01.194Z,10.90
2022-10-19T01:46:40.601Z,10.90
2022-10-19T01:49:17.026Z,10.80
2022-10-19T01:51:53.883Z,10.90
2022-10-19T01:54:23.040Z,10.90
2022-10-19T01:56:52.165Z,10.90
2022-10-19T01:59:21.622Z,10.90
2022-10-19T02:01:51.239Z,11.00
2022-10-19T02:04:22.028Z,11.00
2022-10-19T02:06:52.541Z,11.00
2022-10-19T02:09:20.486Z,11.00
2022-10-19T02:11:57.041Z,11.00
2022-10-19T02:14:33.463Z,11.00
2022-10-19T02:17:07.802Z,11.10
2022-10-19T02:19:35.564Z,11.00
2022-10-19T02:22:03.568Z,11.00
2022-10-19T02:24:31.130Z,11.10
2022-10-19T02:27:00.862Z,11.00
2022-10-19T02:29:28.714Z,11.00
2022-10-19T02:31:56.221Z,11.00
2022-10-19T02:34:23.658Z,11.00
2022-10-19T02:36:51.270Z,11.00
2022-10-19T02:39:18.816Z,11.00
2022-10-19T02:42:18.456Z,11.00
2022-10-19T02:45:07.557Z,11.00
2022-10-19T02:47:45.567Z,11.00
2022-10-19T02:50:14.270Z,11.00
2022-10-19T02:52:42.358Z,10.90
2022-10-19T02:55:10.120Z,10.90
2022-10-19T02:57:37.877Z,10.80
2022-10-19T03:00:09.483Z,10.80
2022-10-19T03:02:37.009Z,10.70
2022-10-19T03:05:05.486Z,10.60
2022-10-19T03:07:33.169Z,10.60
2022-10-19T03:10:00.907Z,10.50
2022-10-19T03:12:28.681Z,10.40
2022-10-19T03:14:56.223Z,10.40
2022-10-19T03:17:23.666Z,10.40
2022-10-19T03:19:51.733Z,10.40
2022-10-19T03:22:19.136Z,10.40
2022-10-19T03:24:46.546Z,10.30
2022-10-19T03:27:14.007Z,10.30
2022-10-19T03:29:41.442Z,10.30
2022-10-19T03:32:08.827Z,10.30
2022-10-19T03:34:36.327Z,10.30
2022-10-19T03:37:03.753Z,10.30
2022-10-19T03:39:31.235Z,10.30
2022-10-19T03:41:58.710Z,10.30
2022-10-19T03:44:26.310Z,10.20
2022-10-19T03:46:53.734Z,10.20
2022-10-19T03:49:21.248Z,10.20
2022-10-19T03:51:48.953Z,10.20
2022-10-19T03:54:17.490Z,10.20
2022-10-19T03:56:45.176Z,10.20
2022-10-19T03:59:16.059Z,10.10
2022-10-19T04:01:46.178Z,10.10
2022-10-19T04:04:17.458Z,10.20
2022-10-19T04:06:48.037Z,10.20
2022-10-19T04:09:19.809Z,10.20
2022-10-19T04:11:48.110Z,10.20
2022-10-19T04:14:27.129Z,10.20
2022-10-19T04:17:04.663Z,10.20
2022-10-19T04:19:32.520Z,10.20
2022-10-19T04:22:00.161Z,10.20
2022-10-19T04:24:28.450Z,10.20
2022-10-19T04:26:57.067Z,10.20
2022-10-19T04:29:29.738Z,10.20
2022-10-19T04:31:57.679Z,10.20
2022-10-19T04:34:25.255Z,10.10
2022-10-19T04:36:54.085Z,10.10
2022-10-19T04:39:21.508Z,10.00
2022-10-19T04:41:48.936Z,10.00
2022-10-19T04:44:16.431Z,10.00
2022-10-19T04:46:43.843Z,9.90
2022-10-19T04:49:11.621Z,9.90
2022-10-19T04:51:40.612Z,9.90
2022-10-19T04:54:08.110Z,9.90
2022-10-19T04:56:35.549Z,9.80
2022-10-19T04:59:03.030Z,9.80
2022-10-19T05:01:31.823Z,9.80
2022-10-19T05:04:02.102Z,9.80
2022-10-19T05:06:31.493Z,9.80
2022-10-19T05:09:00.142Z,9.80
2022-10-19T05:11:28.164Z,9.90
2022-10-19T05:13:57.577Z,9.90
2022-10-19T05:16:26.017Z,9.80
2022-10-19T05:18:59.814Z,9.80
2022-10-19T05:21:29.126Z,9.80
2022-10-19T05:23:57.695Z,9.70
2022-10-19T05:26:27.987Z,9.70
2022-10-19T05:29:01.986Z,9.80
2022-10-19T05:31:32.843Z,9.80
2022-10-19T05:34:01.142Z,9.70
2022-10-19T05:36:34.838Z,9.70
2022-10-19T05:39:09.644Z,9.70
2022-10-19T05:41:37.086Z,9.70
2022-10-19T05:44:05.876Z,9.70
2022-10-19T05:46:34.327Z,9.70
2022-10-19T05:49:02.008Z,9.70
2022-10-19T05:51:29.560Z,9.60
2022-10-19T05:53:58.064Z,9.60
2022-10-19T05:56:30.062Z,9.60
2022-10-19T05:59:00.640Z,9.60
2022-10-19T06:01:29.741Z,9.60
2022-10-19T06:03:59.120Z,9.60
2022-10-19T06:06:27.781Z,9.60
2022-10-19T06:08:56.986Z,9.60
2022-10-19T06:11:28.789Z,9.60
2022-10-19T06:13:59.416Z,9.60
2022-10-19T06:16:27.734Z,9.60
2022-10-19T06:18:56.120Z,9.70
2022-10-19T06:21:27.814Z,9.70
2022-10-19T06:23:58.862Z,9.60
2022-10-19T06:26:28.237Z,9.60
2022-10-19T06:29:00.273Z,9.70
2022-10-19T06:31:36.478Z,9.70
2022-10-19T06:34:04.993Z,9.70
2022-10-19T06:36:32.870Z,9.80
2022-10-19T06:39:02.110Z,9.80
2022-10-19T06:41:32.012Z,9.80
2022-10-19T06:43:59.482Z,9.80
2022-10-19T06:46:28.317Z,9.80
2022-10-19T06:49:02.081Z,9.90
2022-10-19T06:51:32.136Z,9.90
2022-10-19T06:53:59.801Z,10.00
2022-10-19T06:56:27.684Z,10.10
2022-10-19T06:58:55.789Z,10.10
2022-10-19T07:01:24.402Z,10.10
2022-10-19T07:03:52.741Z,10.20
2022-10-19T07:06:20.932Z,10.30
2022-10-19T07:08:48.834Z,10.30
2022-10-19T07:11:19.230Z,10.30
2022-10-19T07:13:47.342Z,10.40
2022-10-19T07:16:21.256Z,10.40
2022-10-19T07:18:52.397Z,10.40
2022-10-19T07:21:22.507Z,10.50
2022-10-19T07:23:50.407Z,10.60
2022-10-19T07:26:27.999Z,10.50
2022-10-19T07:28:58.869Z,10.50
2022-10-19T07:31:28.301Z,10.60
2022-10-19T07:34:01.466Z,10.70
2022-10-19T07:36:31.394Z,10.70
2022-10-19T07:38:59.020Z,10.80
2022-10-19T07:41:27.634Z,10.80
2022-10-19T07:43:55.773Z,10.90
2022-10-19T07:46:27.363Z,11.00
2022-10-19T07:48:55.522Z,11.00
2022-10-19T07:51:23.771Z,11.00
2022-10-19T07:53:51.590Z,11.00
2022-10-19T07:56:25.171Z,11.10
2022-10-19T07:58:56.381Z,11.30
2022-10-19T08:01:31.740Z,11.30
2022-10-19T08:06:49.519Z,11.20
2022-10-19T08:09:33.776Z,11.20
2022-10-19T08:12:06.474Z,11.20
2022-10-19T08:14:34.253Z,11.20
2022-10-19T08:17:02.256Z,11.10
2022-10-19T08:19:29.790Z,11.00
2022-10-19T08:21:57.215Z,11.00
2022-10-19T08:24:24.801Z,11.10
2022-10-19T08:26:52.977Z,11.20
2022-10-19T08:29:21.420Z,11.20
2022-10-19T08:31:49.732Z,11.20
2022-10-19T08:34:17.843Z,11.40
2022-10-19T08:36:45.601Z,11.40
2022-10-19T08:39:14.558Z,11.40
2022-10-19T08:41:59.612Z,11.40
2022-10-19T08:44:45.546Z,11.40
2022-10-19T08:47:32.811Z,11.60
2022-10-19T08:50:00.867Z,11.70
2022-10-19T08:52:34.948Z,11.60
2022-10-19T08:55:09.307Z,11.70
2022-10-19T08:57:54.132Z,11.80
2022-10-19T09:00:58.077Z,12.10
2022-10-19T09:04:01.847Z,12.10
2022-10-19T09:06:54.427Z,12.10
2022-10-19T09:09:22.120Z,12.10
2022-10-19T09:12:04.207Z,12.30
2022-10-19T09:15:01.205Z,12.20
2022-10-19T09:17:29.328Z,12.00
2022-10-19T09:19:59.275Z,11.80
2022-10-19T09:22:35.532Z,11.70
2022-10-19T09:25:25.607Z,11.90
2022-10-19T09:28:38.805Z,12.10
2022-10-19T09:31:22.946Z,12.20
2022-10-19T09:33:57.509Z,12.30
2022-10-19T09:36:49.386Z,12.50
2022-10-19T09:39:18.098Z,12.70
2022-10-19T09:41:52.936Z,12.40
2022-10-19T09:44:20.952Z,12.30
2022-10-19T09:46:54.012Z,12.40
2022-10-19T09:49:49.023Z,12.50
2022-10-19T09:52:38.118Z,12.60
2022-10-19T09:55:20.660Z,12.30
2022-10-19T09:57:52.107Z,12.50
2022-10-19T10:00:26.843Z,12.70
2022-10-19T10:02:56.563Z,12.70
2022-10-19T10:05:32.967Z,12.60
2022-10-19T10:08:00.682Z,12.80
2022-10-19T10:10:42.585Z,12.90
2022-10-19T10:13:21.622Z,12.70
2022-10-19T10:15:57.238Z,12.80
2022-10-19T10:18:26.021Z,13.00
2022-10-19T10:21:06.019Z,13.10
2022-10-19T10:23:36.813Z,13.10
2022-10-19T10:26:06.663Z,13.10
2022-10-19T10:28:34.448Z,12.90
2022-10-19T10:31:09.251Z,12.70
2022-10-19T10:33:44.927Z,12.90
2022-10-19T10:36:13.577Z,13.10
2022-10-19T10:38:53.393Z,13.10
2022-10-19T10:41:23.542Z,13.00
2022-10-19T10:44:06.939Z,12.80
2022-10-19T10:47:02.281Z,12.60
2022-10-19T10:49:42.755Z,12.30
2022-10-19T10:52:16.418Z,12.30
2022-10-19T10:55:08.591Z,12.30
2022-10-19T10:57:45.497Z,12.30
2022-10-19T11:00:22.222Z,12.20
2022-10-19T11:03:02.241Z,12.00
2022-10-19T11:05:35.095Z,12.00
2022-10-19T11:08:26.845Z,11.90
2022-10-19T11:11:06.459Z,11.90
2022-10-19T11:14:26.480Z,11.90
2022-10-19T11:16:58.304Z,12.00
2022-10-19T11:19:42.304Z,12.20
2022-10-19T11:22:23.680Z,12.50
2022-10-19T11:25:17.806Z,12.30
2022-10-19T11:28:19.977Z,12.20
2022-10-19T11:31:02.543Z,12.20
2022-10-19T11:34:16.180Z,12.10
2022-10-19T11:36:51.031Z,11.90
2022-10-19T11:40:06.602Z,11.80
2022-10-19T11:43:33.885Z,11.90
2022-10-19T11:46:17.205Z,12.10
2022-10-19T11:49:31.378Z,12.60
2022-10-19T12:31:32.943Z,12.60
2022-10-19T12:34:33.272Z,12.40
2022-10-19T12:37:24.218Z,12.20
2022-10-19T12:40:03.419Z,11.90
2022-10-19T12:43:10.574Z,11.80
2022-10-19T12:46:23.837Z,11.80
2022-10-19T12:49:26.712Z,11.90
2022-10-19T12:51:56.857Z,12.20
2022-10-19T12:54:27.750Z,12.30
2022-10-19T12:56:58.387Z,12.20
2022-10-19T12:59:36.760Z,12.20
2022-10-19T13:02:25.089Z,12.20
2022-10-19T13:04:54.651Z,12.10
2022-10-19T13:07:22.365Z,11.80
2022-10-19T13:09:50.148Z,11.70
2022-10-19T13:12:33.032Z,11.50
2022-10-19T13:15:05.402Z,11.50
2022-10-19T13:17:40.985Z,11.30
2022-10-19T13:20:14.673Z,11.30
2022-10-19T13:22:46.293Z,11.30
2022-10-19T13:25:28.488Z,11.50
2022-10-19T13:28:01.889Z,12.00
2022-10-19T13:30:38.676Z,12.60
2022-10-19T13:33:31.528Z,12.70
2022-10-19T13:36:02.677Z,12.90
2022-10-19T13:38:51.258Z,13.00
2022-10-19T13:41:26.066Z,12.70
2022-10-19T13:44:14.551Z,12.70
2022-10-19T13:47:06.814Z,12.40
2022-10-19T13:50:39.375Z,12.50
2022-10-19T13:53:29.731Z,12.60
2022-10-19T13:56:09.613Z,12.30
2022-10-19T13:59:28.198Z,12.40
2022-10-19T14:02:49.058Z,12.40
2022-10-19T14:05:56.935Z,12.30
2022-10-19T14:09:08.547Z,12.20
2022-10-19T14:11:40.654Z,12.80
2022-10-19T14:14:10.657Z,12.80
2022-10-19T14:16:59.657Z,12.90
2022-10-19T14:19:41.050Z,13.30
2022-10-19T14:22:36.322Z,14.20
2022-10-19T14:25:08.154Z,15.30
2022-10-19T14:27:36.157Z,15.80
2022-10-19T14:30:04.785Z,15.20
2022-10-19T14:32:34.949Z,14.00
2022-10-19T14:35:21.144Z,13.10
2022-10-19T14:37:49.860Z,12.40
2022-10-19T14:40:34.539Z,12.20
2022-10-19T14:43:20.179Z,12.00
2022-10-19T14:46:07.854Z,12.00
2022-10-19T14:48:50.760Z,11.90
2022-10-19T14:51:41.639Z,12.00
2022-10-19T14:54:25.796Z,12.00
2022-10-19T14:57:02.380Z,12.00
2022-10-19T14:59:39.339Z,11.90
2022-10-19T15:02:38.914Z,11.90
2022-10-19T15:05:20.089Z,11.80
2022-10-19T15:07:48.308Z,11.80
2022-10-19T15:10:35.748Z,11.80
2022-10-19T15:13:06.909Z,11.90
2022-10-19T15:15:36.018Z,11.80
2022-10-19T15:18:06.910Z,11.70
2022-10-19T15:20:54.940Z,11.60
2022-10-19T15:23:44.230Z,11.50
2022-10-19T15:26:26.536Z,11.40
2022-10-19T15:29:07.110Z,11.30
2022-10-19T15:31:35.132Z,11.30
2022-10-19T15:34:04.253Z,11.30
2022-10-19T15:36:33.237Z,11.30
2022-10-19T15:39:17.903Z,11.30
2022-10-19T15:41:53.217Z,11.40
2022-10-19T15:44:43.606Z,11.40
2022-10-19T15:47:24.288Z,11.40
2022-10-19T15:49:58.819Z,11.40
2022-10-19T15:52:33.423Z,11.20
2022-10-19T15:55:02.140Z,11.20
2022-10-19T15:57:38.644Z,11.10
2022-10-19T16:00:18.148Z,11.10
2022-10-19T16:02:45.618Z,11.00
2022-10-19T16:05:13.159Z,11.00
2022-10-19T16:07:42.408Z,10.90
2022-10-19T16:10:21.381Z,10.80
2022-10-19T16:12:48.957Z,10.70
2022-10-19T16:15:22.640Z,10.70
2022-10-19T16:17:54.671Z,10.70
2022-10-19T16:20:24.022Z,10.60
2022-10-19T16:22:51.858Z,10.50
2022-10-19T16:25:20.313Z,10.50
2022-10-19T16:27:47.871Z,10.50
2022-10-19T16:30:15.432Z,10.40
2022-10-19T16:35:15.421Z,10.20
2022-10-19T16:37:43.044Z,10.20
2022-10-19T16:40:11.067Z,10.20
2022-10-19T16:42:38.801Z,10.20
2022-10-19T16:45:06.921Z,10.20
2022-10-19T16:47:34.846Z,10.20
2022-10-19T16:50:05.590Z,10.20
2022-10-19T16:52:33.590Z,10.10
2022-10-19T16:55:01.429Z,10.10
2022-10-19T16:57:28.966Z,10.00
2022-10-19T16:59:56.485Z,9.90
2022-10-19T17:02:24.140Z,9.80
2022-10-19T17:04:51.980Z,9.70
2022-10-19T17:07:19.819Z,9.60
2022-10-19T17:09:49.691Z,9.50
2022-10-19T17:12:20.012Z,9.50
2022-10-19T17:15:02.969Z,9.40
2022-10-19T17:17:43.045Z,9.30
2022-10-19T17:20:11.544Z,9.20
2022-10-19T17:22:38.979Z,9.10
2022-10-19T17:25:06.964Z,9.00
2022-10-19T17:27:34.402Z,9.00
2022-10-19T17:30:02.093Z,8.70
2022-10-19T17:32:29.594Z,8.70
2022-10-19T17:34:57.154Z,8.60
2022-10-19T17:37:24.747Z,8.40
2022-10-19T17:39:52.435Z,8.50
2022-10-19T17:42:19.840Z,8.50
2022-10-19T17:44:48.365Z,8.50
2022-10-19T17:47:15.818Z,8.30
2022-10-19T17:49:43.269Z,8.20
2022-10-19T17:52:10.707Z,8.10
2022-10-19T17:54:48.613Z,8.10
2022-10-19T17:57:26.337Z,8.10
2022-10-19T17:59:55.115Z,8.10
2022-10-19T18:02:22.530Z,8.00
2022-10-19T18:04:50.055Z,8.00
2022-10-19T18:07:17.587Z,8.00
2022-10-19T18:09:45.017Z,7.90
2022-10-19T18:12:13.625Z,7.90
2022-10-19T18:14:43.242Z,7.70
2022-10-19T18:17:11.487Z,7.60
2022-10-19T18:19:38.972Z,7.60
2022-10-19T18:22:06.536Z,7.60
2022-10-19T18:24:34.888Z,7.50
2022-10-19T18:27:02.420Z,7.40
2022-10-19T18:29:29.861Z,7.40
2022-10-19T18:31:57.498Z,7.30
2022-10-19T18:34:26.818Z,7.20
2022-10-19T18:36:54.621Z,7.10
2022-10-19T18:39:22.812Z,6.90
2022-10-19T18:41:54.685Z,6.90
2022-10-19T18:44:26.458Z,6.90
2022-10-19T18:46:55.934Z,6.70
2022-10-19T18:49:24.372Z,6.70
2022-10-19T18:51:55.164Z,6.50
2022-10-19T18:54:26.591Z,6.50
2022-10-19T18:56:55.506Z,6.40
2022-10-19T18:59:23.251Z,6.30
2022-10-19T19:01:50.912Z,6.30
2022-10-19T19:04:18.541Z,6.50
2022-10-19T19:06:46.039Z,6.70
2022-10-19T19:09:14.074Z,6.70
2022-10-19T19:11:41.758Z,6.80
2022-10-19T19:14:14.875Z,6.80
2022-10-19T19:16:44.703Z,6.80
2022-10-19T19:19:14.722Z,6.80
2022-10-19T19:21:44.700Z,6.80
2022-10-19T19:24:19.795Z,6.60
2022-10-19T19:26:52.303Z,6.60
2022-10-19T19:29:21.643Z,6.70
2022-10-19T19:31:49.481Z,6.70
2022-10-19T19:34:17.322Z,6.80
2022-10-19T19:36:48.901Z,6.70
2022-10-19T19:39:19.589Z,6.80
2022-10-19T19:41:48.755Z,6.70
2022-10-19T19:44:17.010Z,6.70
2022-10-19T19:46:44.577Z,6.70
2022-10-19T19:49:12.168Z,6.70
2022-10-19T19:51:39.696Z,6.60
2022-10-19T19:54:07.274Z,6.60
2022-10-19T19:56:34.894Z,6.60
2022-10-19T19:59:05.203Z,6.60
2022-10-19T20:01:33.681Z,6.50
2022-10-19T20:06:37.582Z,6.40
2022-10-19T20:09:07.014Z,6.20
2022-10-19T20:11:37.272Z,6.10
2022-10-19T20:14:07.318Z,6.10
2022-10-19T20:16:34.816Z,6.10
2022-10-19T20:19:09.206Z,6.10
2022-10-19T20:21:37.388Z,6.00
2022-10-19T20:24:05.198Z,5.90
2022-10-19T20:26:33.064Z,6.00
2022-10-19T20:29:03.705Z,5.90
2022-10-19T20:31:33.723Z,5.70
2022-10-19T20:34:01.228Z,5.50
2022-10-19T20:36:29.019Z,5.30
2022-10-19T20:38:58.925Z,5.10
2022-10-19T20:41:28.852Z,4.90
2022-10-19T20:43:56.953Z,4.80
2022-10-19T20:46:28.498Z,4.60
2022-10-19T20:49:02.030Z,4.50
2022-10-19T20:51:32.927Z,4.40
2022-10-19T20:54:04.163Z,4.30
2022-10-19T20:56:35.798Z,4.40
2022-10-19T20:59:16.950Z,4.40
2022-10-19T21:01:46.066Z,4.50
2022-10-19T21:04:15.536Z,4.70
2022-10-19T21:06:49.176Z,4.90
2022-10-19T21:09:23.258Z,4.90
2022-10-19T21:11:52.361Z,5.00
2022-10-19T21:14:28.386Z,4.80
2022-10-19T21:17:00.873Z,4.80
2022-10-19T21:19:31.033Z,4.60
2022-10-19T21:22:02.468Z,4.70
2022-10-19T21:24:33.883Z,4.60
2022-10-19T21:27:05.284Z,4.60
2022-10-19T21:29:32.921Z,4.50
2022-10-19T21:32:00.446Z,4.30
2022-10-19T21:34:30.445Z,4.40
2022-10-19T21:36:58.248Z,4.60
2022-10-19T21:39:25.823Z,4.70
2022-10-19T21:41:53.229Z,4.60
2022-10-19T21:44:23.240Z,4.30
2022-10-19T21:46:51.133Z,4.10
2022-10-19T21:49:19.308Z,4.00
2022-10-19T21:51:53.949Z,4.40
2022-10-19T21:54:29.286Z,4.50
2022-10-19T21:56:58.561Z,4.40
2022-10-19T21:59:26.637Z,4.30
2022-10-19T22:01:55.377Z,4.50
2022-10-19T22:04:23.513Z,4.60
2022-10-19T22:06:51.122Z,4.50
2022-10-19T22:09:22.296Z,4.40
2022-10-19T22:11:49.741Z,4.50
2022-10-19T22:14:17.987Z,4.40
2022-10-19T22:16:45.689Z,4.20
2022-10-19T22:19:13.307Z,4.00
2022-10-19T22:21:41.011Z,3.90
2022-10-19T22:24:15.114Z,4.10
2022-10-19T22:26:47.348Z,4.10
2022-10-19T22:29:15.283Z,4.10
2022-10-19T22:31:43.392Z,4.10
2022-10-19T22:34:17.149Z,4.10
2022-10-19T22:36:45.753Z,4.00
2022-10-19T22:39:14.304Z,3.90
2022-10-19T22:41:41.737Z,4.00
2022-10-19T22:44:09.191Z,4.00
2022-10-19T22:46:36.674Z,4.10
2022-10-19T22:49:04.597Z,4.20
2022-10-19T22:51:32.178Z,4.20
2022-10-19T22:53:59.662Z,4.20
2022-10-19T22:56:27.874Z,4.10
2022-10-19T22:59:00.163Z,4.00
2022-10-19T23:01:28.677Z,4.00
2022-10-19T23:03:56.200Z,3.80
2022-10-19T23:06:23.736Z,3.80
2022-10-19T23:08:51.585Z,3.80
2022-10-19T23:11:19.074Z,3.90
2022-10-19T23:13:46.581Z,4.00
2022-10-19T23:16:14.173Z,4.00
2022-10-19T23:18:42.144Z,3.80
2022-10-19T23:21:13.406Z,3.60
2022-10-19T23:23:41.932Z,3.40
2022-10-19T23:26:16.486Z,3.10
2022-10-19T23:28:46.728Z,3.00
2022-10-19T23:31:21.213Z,2.80
2022-10-19T23:33:48.632Z,2.70
2022-10-19T23:36:24.032Z,2.60
2022-10-19T23:38:53.171Z,2.50
2022-10-19T23:41:21.675Z,2.40
2022-10-19T23:43:49.542Z,2.40
2022-10-19T23:46:17.222Z,2.30
2022-10-19T23:48:44.710Z,2.50
2022-10-19T23:51:16.356Z,2.60
2022-10-19T23:53:46.272Z,2.60
2022-10-19T23:56:23.705Z,2.50
2022-10-19T23:58:52.043Z,2.40
